createdAt,value
2022-08-05T00:01:20.589Z,74.60
2022-08-05T00:04:09.802Z,74.48
2022-08-05T00:06:55.240Z,74.41
2022-08-05T00:09:44.627Z,75.03
2022-08-05T00:12:28.646Z,76.03
2022-08-05T00:15:58.239Z,75.37
2022-08-05T00:18:22.533Z,75.47
2022-08-05T00:21:10.606Z,75.54
2022-08-05T00:24:10.658Z,75.63
2022-08-05T00:27:01.756Z,75.70
2022-08-05T00:29:45.882Z,76.32
2022-08-05T00:32:32.590Z,76.49
2022-08-05T00:35:33.175Z,76.64
2022-08-05T00:38:28.618Z,77.34
2022-08-05T00:41:15.477Z,76.45
2022-08-05T00:44:08.636Z,76.33
2022-08-05T00:46:54.072Z,76.65
2022-08-05T00:49:51.438Z,76.62
2022-08-05T00:52:32.570Z,75.92
2022-08-05T00:55:42.217Z,76.55
2022-08-05T00:58:27.499Z,76.78
2022-08-05T01:01:24.926Z,77.04
2022-08-05T01:04:20.102Z,77.33
2022-08-05T01:07:13.961Z,76.07
2022-08-05T01:09:58.528Z,77.08
2022-08-05T01:13:05.188Z,77.59
2022-08-05T01:15:57.681Z,76.47
2022-08-05T01:18:53.723Z,77.13
2022-08-05T01:21:59.050Z,76.98
2022-08-05T01:25:40.387Z,76.71
2022-08-05T01:28:39.513Z,76.42
2022-08-05T01:31:50.765Z,76.32
2022-08-05T01:34:40.901Z,76.24
2022-08-05T01:37:32.081Z,76.72
2022-08-05T01:40:22.546Z,76.46
2022-08-05T01:43:10.650Z,76.30
2022-08-05T01:46:16.419Z,76.16
2022-08-05T01:49:24.383Z,76.86
2022-08-05T01:52:17.827Z,77.57
2022-08-05T01:55:04.473Z,77.09
2022-08-05T01:58:13.082Z,77.54
2022-08-05T02:00:59.736Z,77.48
2022-08-05T02:03:52.616Z,77.03
2022-08-05T02:06:38.266Z,77.12
2022-08-05T02:09:26.574Z,78.08
2022-08-05T02:12:17.602Z,78.25
2022-08-05T02:15:34.939Z,78.07
2022-08-05T02:18:49.685Z,78.51
2022-08-05T02:22:26.389Z,78.65
2022-08-05T02:25:16.224Z,78.52
2022-08-05T02:28:08.998Z,78.26
2022-08-05T02:30:56.568Z,78.64
2022-08-05T02:33:57.495Z,78.67
2022-08-05T02:36:42.749Z,78.79
2022-08-05T02:39:32.078Z,79.21
2022-08-05T02:42:25.971Z,78.63
2022-08-05T02:45:16.875Z,78.45
2022-08-05T02:48:11.499Z,78.37
2022-08-05T02:51:01.045Z,77.92
2022-08-05T02:53:44.691Z,78.92
2022-08-05T02:56:36.565Z,78.47
2022-08-05T02:59:27.153Z,78.47
2022-08-05T03:02:16.572Z,78.39
2022-08-05T03:05:00.712Z,78.57
2022-08-05T03:08:06.627Z,79.23
2022-08-05T03:11:01.335Z,79.55
2022-08-05T03:14:03.104Z,79.63
2022-08-05T03:16:45.739Z,79.28
2022-08-05T03:19:36.298Z,79.34
2022-08-05T03:22:31.955Z,79.46
2022-08-05T03:25:34.094Z,79.50
2022-08-05T03:28:21.847Z,79.78
2022-08-05T03:31:10.974Z,79.57
2022-08-05T03:34:24.626Z,80.28
2022-08-05T03:37:12.622Z,80.53
2022-08-05T03:40:08.707Z,80.62
2022-08-05T03:42:59.365Z,80.79
2022-08-05T03:45:58.056Z,80.99
2022-08-05T03:48:47.753Z,80.81
2022-08-05T03:52:49.414Z,81.32
2022-08-05T03:55:51.763Z,81.29
2022-08-05T03:57:51.745Z,82.00
2022-08-05T04:00:41.910Z,81.20
2022-08-05T04:03:28.403Z,81.14
2022-08-05T04:06:16.677Z,81.24
2022-08-05T04:09:00.765Z,81.22
2022-08-05T04:11:52.347Z,81.60
2022-08-05T04:14:34.721Z,81.48
2022-08-05T04:17:21.739Z,81.37
2022-08-05T04:20:04.907Z,81.63
2022-08-05T04:22:53.631Z,81.79
2022-08-05T04:25:56.912Z,81.71
2022-08-05T04:28:51.283Z,82.27
2022-08-05T04:31:37.539Z,81.78
2022-08-05T04:34:37.565Z,82.09
2022-08-05T04:38:02.244Z,81.33
2022-08-05T04:40:32.149Z,81.47
2022-08-05T04:43:22.097Z,81.49
2022-08-05T04:46:02.660Z,81.58
2022-08-05T04:48:52.798Z,82.01
2022-08-05T04:51:34.035Z,81.69
2022-08-05T04:54:23.042Z,80.75
2022-08-05T04:57:04.666Z,80.91
2022-08-05T04:59:52.757Z,81.12
2022-08-05T05:02:37.739Z,79.57
2022-08-05T05:05:32.874Z,78.09
2022-08-05T05:08:33.671Z,76.18
2022-08-05T05:11:22.506Z,73.42
2022-08-05T05:14:28.012Z,68.97
2022-08-05T05:17:24.200Z,66.22
2022-08-05T05:20:05.687Z,63.49
2022-08-05T05:22:52.800Z,59.92
2022-08-05T05:25:40.960Z,56.95
2022-08-05T05:28:29.825Z,53.37
2022-08-05T05:31:11.790Z,50.75
2022-08-05T05:34:05.660Z,47.92
2022-08-05T05:36:53.744Z,46.22
2022-08-05T05:39:36.396Z,43.92
2022-08-05T05:42:24.672Z,42.10
2022-08-05T05:45:05.787Z,40.76
2022-08-05T05:48:06.266Z,40.60
2022-08-05T05:50:51.149Z,38.91
2022-08-05T05:53:54.579Z,37.71
2022-08-05T05:56:39.804Z,36.54
2022-08-05T05:59:28.837Z,35.51
2022-08-05T06:02:11.196Z,33.87
2022-08-05T06:05:00.334Z,32.81
2022-08-05T06:07:42.906Z,32.47
2022-08-05T06:10:52.439Z,31.84
2022-08-05T06:13:40.816Z,31.26
2022-08-05T06:16:42.610Z,31.03
2022-08-05T06:19:26.084Z,30.61
2022-08-05T06:22:30.091Z,29.85
2022-08-05T06:25:59.717Z,29.69
2022-08-05T06:28:22.550Z,29.32
2022-08-05T06:31:11.307Z,28.84
2022-08-05T06:34:13.251Z,28.03
2022-08-05T06:37:03.292Z,28.01
2022-08-05T06:39:46.178Z,27.72
2022-08-05T06:42:34.816Z,27.77
2022-08-05T06:45:21.298Z,27.32
2022-08-05T06:48:52.871Z,27.35
2022-08-05T06:51:30.050Z,26.94
2022-08-05T06:54:19.836Z,26.40
2022-08-05T06:57:13.943Z,27.03
2022-08-05T07:00:14.928Z,26.48
2022-08-05T07:03:03.720Z,26.78
2022-08-05T07:05:57.831Z,26.02
2022-08-05T07:08:39.832Z,26.63
2022-08-05T07:11:31.156Z,26.96
2022-08-05T07:14:32.225Z,26.86
2022-08-05T07:18:00.619Z,27.69
2022-08-05T07:20:33.522Z,28.32
2022-08-05T07:23:26.280Z,28.95
2022-08-05T07:26:16.391Z,30.16
2022-08-05T07:29:09.893Z,29.32
2022-08-05T07:31:54.797Z,28.65
2022-08-05T07:34:49.721Z,28.25
2022-08-05T07:37:47.265Z,28.34
2022-08-05T07:40:32.952Z,27.85
2022-08-05T07:43:21.264Z,28.07
2022-08-05T07:46:01.973Z,28.90
2022-08-05T07:49:02.005Z,28.94
2022-08-05T07:51:54.381Z,28.80
2022-08-05T07:54:49.137Z,28.84
2022-08-05T07:57:56.322Z,28.83
2022-08-05T08:00:37.830Z,30.27
2022-08-05T08:03:21.536Z,31.08
2022-08-05T08:06:09.823Z,31.41
2022-08-05T08:08:51.948Z,31.97
2022-08-05T08:11:47.810Z,33.28
2022-08-05T08:14:40.814Z,33.98
2022-08-05T08:17:31.040Z,34.18
2022-08-05T08:20:44.198Z,33.71
2022-08-05T08:24:01.006Z,31.97
2022-08-05T08:26:26.782Z,32.11
2022-08-05T08:29:45.563Z,32.54
2022-08-05T08:32:27.755Z,34.35
2022-08-05T08:35:26.744Z,34.65
2022-08-05T08:38:17.267Z,34.57
2022-08-05T08:41:19.855Z,35.04
2022-08-05T08:45:19.799Z,36.82
2022-08-05T08:48:06.055Z,36.60
2022-08-05T08:50:52.083Z,36.78
2022-08-05T08:53:34.551Z,35.67
2022-08-05T08:56:27.192Z,34.79
2022-08-05T08:59:19.205Z,34.80
2022-08-05T09:02:13.999Z,35.10
2022-08-05T09:05:17.509Z,34.03
2022-08-05T09:08:09.702Z,32.89
2022-08-05T09:10:52.546Z,33.57
2022-08-05T09:14:10.183Z,35.14
2022-08-05T09:16:41.825Z,35.40
2022-08-05T09:20:01.624Z,34.67
2022-08-05T09:23:19.964Z,34.94
2022-08-05T09:26:20.559Z,34.57
2022-08-05T09:32:45.790Z,34.76
2022-08-05T09:35:34.216Z,35.99
2022-08-05T09:38:29.474Z,37.48
2022-08-05T09:41:12.838Z,36.67
2022-08-05T09:44:05.779Z,37.24
2022-08-05T09:46:51.937Z,37.33
2022-08-05T09:50:02.052Z,36.67
2022-08-05T09:52:45.402Z,35.63
2022-08-05T09:55:56.534Z,35.38
2022-08-05T09:58:34.810Z,35.64
2022-08-05T10:01:32.021Z,35.69
2022-08-05T10:04:29.228Z,35.76
2022-08-05T10:07:20.038Z,35.31
2022-08-05T10:13:14.657Z,37.20
2022-08-05T10:15:56.606Z,37.51
2022-08-05T10:18:48.080Z,37.09
2022-08-05T10:21:35.335Z,36.11
2022-08-05T10:24:28.639Z,36.34
2022-08-05T10:27:10.924Z,36.99
2022-08-05T10:30:06.335Z,36.50
2022-08-05T10:33:09.392Z,36.09
2022-08-05T10:36:06.991Z,37.45
2022-08-05T10:38:52.845Z,39.13
2022-08-05T10:41:47.391Z,40.01
2022-08-05T10:44:30.855Z,39.34
2022-08-05T10:47:27.069Z,39.90
2022-08-05T10:50:36.237Z,39.05
2022-08-05T10:53:42.652Z,38.35
2022-08-05T10:56:29.611Z,38.16
2022-08-05T11:00:03.709Z,38.84
2022-08-05T11:02:38.344Z,39.28
2022-08-05T11:05:29.244Z,39.56
2022-08-05T11:08:37.415Z,39.12
2022-08-05T11:11:52.006Z,39.27
2022-08-05T11:15:11.883Z,39.43
2022-08-05T11:18:05.889Z,39.08
2022-08-05T11:20:54.028Z,38.46
2022-08-05T11:24:30.176Z,38.22
2022-08-05T11:27:51.329Z,38.49
2022-08-05T11:31:06.623Z,38.83
2022-08-05T11:33:54.285Z,38.01
2022-08-05T11:38:26.327Z,37.28
2022-08-05T11:40:14.910Z,37.06
2022-08-05T11:43:09.746Z,36.38
2022-08-05T11:46:30.732Z,35.40
2022-08-05T11:49:04.005Z,34.98
2022-08-05T11:51:49.209Z,34.68
2022-08-05T11:54:41.807Z,34.49
2022-08-05T11:57:27.074Z,33.75
2022-08-05T12:00:38.273Z,34.02
2022-08-05T12:03:32.341Z,33.88
2022-08-05T12:06:22.066Z,33.57
2022-08-05T12:09:04.918Z,34.61
2022-08-05T12:11:53.029Z,34.39
2022-08-05T12:14:47.315Z,34.96
2022-08-05T12:18:02.829Z,35.06
2022-08-05T12:20:37.928Z,35.50
2022-08-05T12:23:25.045Z,35.12
2022-08-05T12:26:09.312Z,34.42
2022-08-05T12:28:58.819Z,33.88
2022-08-05T12:31:49.818Z,33.91
2022-08-05T12:34:50.945Z,34.48
2022-08-05T12:37:39.302Z,34.75
2022-08-05T12:40:26.697Z,34.32
2022-08-05T12:43:20.822Z,34.52
2022-08-05T12:46:03.089Z,34.48
2022-08-05T12:48:50.931Z,35.44
2022-08-05T12:52:12.037Z,35.12
2022-08-05T12:54:41.946Z,34.97
2022-08-05T12:57:23.232Z,35.46
2022-08-05T13:02:04.061Z,35.32
2022-08-05T13:03:15.934Z,35.07
2022-08-05T13:06:07.958Z,34.85
2022-08-05T13:08:54.050Z,35.14
2022-08-05T13:12:02.738Z,35.09
2022-08-05T13:14:47.564Z,34.83
2022-08-05T13:21:05.091Z,36.40
2022-08-05T13:23:52.802Z,36.41
2022-08-05T13:26:57.974Z,37.14
2022-08-05T13:29:59.384Z,37.01
2022-08-05T13:32:50.537Z,36.39
2022-08-05T13:35:51.378Z,36.57
2022-08-05T13:38:42.793Z,36.54
2022-08-05T13:41:35.111Z,36.48
2022-08-05T13:44:28.133Z,36.07
2022-08-05T13:47:10.905Z,36.90
2022-08-05T13:50:19.194Z,37.08
2022-08-05T13:53:00.363Z,37.05
2022-08-05T13:55:50.149Z,37.85
2022-08-05T13:58:40.348Z,37.73
2022-08-05T14:01:44.372Z,37.69
2022-08-05T14:04:50.187Z,37.40
2022-08-05T14:07:59.844Z,37.73
2022-08-05T14:10:44.498Z,37.90
2022-08-05T14:13:34.103Z,37.98
2022-08-05T14:16:16.994Z,38.40
2022-08-05T14:19:08.079Z,38.69
2022-08-05T14:22:09.041Z,38.06
2022-08-05T14:24:59.499Z,37.84
2022-08-05T14:27:40.407Z,37.88
2022-08-05T14:30:36.119Z,38.10
2022-08-05T14:33:22.737Z,38.29
2022-08-05T14:36:11.156Z,38.58
2022-08-05T14:38:52.758Z,38.35
2022-08-05T14:42:08.735Z,38.44
2022-08-05T14:44:47.136Z,38.30
2022-08-05T14:48:04.969Z,38.25
2022-08-05T14:50:40.795Z,38.31
2022-08-05T14:53:29.836Z,38.45
2022-08-05T14:56:11.024Z,39.00
2022-08-05T14:59:00.138Z,38.80
2022-08-05T15:01:48.262Z,38.28
2022-08-05T15:04:37.137Z,38.37
2022-08-05T15:08:06.502Z,37.99
2022-08-05T15:10:28.956Z,38.19
2022-08-05T15:13:12.397Z,38.29
2022-08-05T15:16:04.148Z,38.19
2022-08-05T15:18:47.223Z,38.59
2022-08-05T15:21:35.295Z,38.13
2022-08-05T15:24:16.136Z,37.81
2022-08-05T15:27:04.208Z,38.08
2022-08-05T15:29:51.428Z,37.94
2022-08-05T15:32:41.849Z,37.99
2022-08-05T15:35:36.036Z,37.24
2022-08-05T15:38:33.940Z,37.75
2022-08-05T15:41:25.277Z,37.74
2022-08-05T15:44:27.517Z,37.33
2022-08-05T15:47:16.875Z,37.69
2022-08-05T15:49:59.519Z,38.13
2022-08-05T15:52:53.738Z,38.10
2022-08-05T15:56:02.635Z,38.34
2022-08-05T15:58:44.036Z,38.37
2022-08-05T16:01:29.289Z,38.46
2022-08-05T16:04:18.486Z,38.68
2022-08-05T16:07:00.886Z,38.63
2022-08-05T16:09:48.432Z,38.23
2022-08-05T16:12:30.167Z,37.83
2022-08-05T16:15:19.116Z,37.82
2022-08-05T16:18:04.055Z,38.14
2022-08-05T16:20:52.806Z,38.20
2022-08-05T16:23:53.835Z,38.26
2022-08-05T16:26:56.822Z,38.66
2022-08-05T16:29:41.252Z,38.56
2022-08-05T16:32:31.350Z,38.97
2022-08-05T16:35:28.702Z,39.31
2022-08-05T16:38:28.143Z,38.90
2022-08-05T16:42:14.278Z,38.86
2022-08-05T16:44:21.246Z,38.55
2022-08-05T16:47:07.242Z,38.33
2022-08-05T16:50:18.828Z,38.40
2022-08-05T16:53:11.943Z,38.92
2022-08-05T16:56:00.812Z,38.91
2022-08-05T16:58:44.176Z,39.28
2022-08-05T17:01:54.560Z,38.81
2022-08-05T17:04:35.843Z,39.12
2022-08-05T17:07:39.272Z,39.17
2022-08-05T17:10:30.565Z,40.19
2022-08-05T17:13:21.280Z,40.04
2022-08-05T17:16:32.625Z,40.27
2022-08-05T17:19:24.447Z,40.18
2022-08-05T17:22:06.187Z,39.85
2022-08-05T17:25:00.246Z,40.36
2022-08-05T17:27:42.219Z,40.64
2022-08-05T17:30:30.600Z,40.59
2022-08-05T17:33:11.220Z,40.67
2022-08-05T17:36:32.824Z,40.86
2022-08-05T17:39:24.538Z,41.69
2022-08-05T17:42:30.204Z,41.91
2022-08-05T17:45:22.052Z,41.82
2022-08-05T17:48:04.214Z,41.49
2022-08-05T17:50:53.274Z,41.22
2022-08-05T17:53:35.911Z,40.64
2022-08-05T17:56:23.257Z,40.10
2022-08-05T17:59:09.096Z,40.28
2022-08-05T18:01:59.460Z,39.92
2022-08-05T18:04:51.332Z,40.13
2022-08-05T18:07:42.866Z,40.09
2022-08-05T18:10:25.956Z,39.84
2022-08-05T18:13:13.259Z,40.24
2022-08-05T18:15:54.108Z,40.24
2022-08-05T18:18:48.604Z,40.49
2022-08-05T18:22:08.916Z,40.97
2022-08-05T18:24:39.955Z,40.54
2022-08-05T18:27:21.503Z,40.68
2022-08-05T18:30:08.255Z,41.07
2022-08-05T18:32:53.676Z,41.51
2022-08-05T18:36:01.399Z,41.56
2022-08-05T18:38:53.515Z,41.26
2022-08-05T18:41:56.551Z,42.04
2022-08-05T18:44:51.509Z,42.40
2022-08-05T18:47:38.057Z,42.31
2022-08-05T18:50:46.964Z,42.96
2022-08-05T18:53:29.599Z,43.49
2022-08-05T18:56:25.407Z,44.18
2022-08-05T18:59:42.730Z,44.74
2022-08-05T19:02:36.475Z,45.53
2022-08-05T19:06:13.612Z,45.71
2022-08-05T19:08:30.440Z,47.33
2022-08-05T19:11:14.474Z,47.71
2022-08-05T19:14:15.293Z,47.85
2022-08-05T19:17:03.287Z,48.62
2022-08-05T19:19:54.555Z,48.69
2022-08-05T19:22:35.588Z,49.07
2022-08-05T19:25:30.700Z,49.98
2022-08-05T19:28:23.274Z,50.33
2022-08-05T19:31:13.393Z,50.65
2022-08-05T19:33:56.711Z,50.91
2022-08-05T19:36:47.305Z,51.55
2022-08-05T19:39:30.111Z,52.10
2022-08-05T19:42:35.066Z,52.32
2022-08-05T19:45:17.470Z,52.34
2022-08-05T19:48:06.169Z,52.78
2022-08-05T19:50:49.265Z,53.10
2022-08-05T19:54:04.588Z,53.32
2022-08-05T19:56:41.331Z,53.67
2022-08-05T19:59:55.137Z,53.97
2022-08-05T20:02:33.799Z,54.54
2022-08-05T20:05:25.055Z,54.74
2022-08-05T20:08:07.447Z,54.77
2022-08-05T20:10:58.182Z,55.81
2022-08-05T20:13:58.051Z,55.77
2022-08-05T20:16:46.195Z,56.37
2022-08-05T20:19:36.013Z,56.68
2022-08-05T20:22:26.589Z,56.23
2022-08-05T20:25:10.296Z,56.72
2022-08-05T20:27:59.198Z,57.21
2022-08-05T20:30:41.149Z,57.05
2022-08-05T20:33:29.216Z,57.64
2022-08-05T20:36:25.183Z,57.70
2022-08-05T20:39:17.072Z,58.08
2022-08-05T20:42:00.339Z,58.37
2022-08-05T20:44:48.204Z,58.25
2022-08-05T20:47:34.307Z,58.58
2022-08-05T20:50:27.939Z,58.87
2022-08-05T20:53:16.001Z,58.73
2022-08-05T20:56:24.518Z,58.81
2022-08-05T20:59:19.357Z,58.35
2022-08-05T21:02:14.255Z,59.42
2022-08-05T21:05:02.696Z,59.16
2022-08-05T21:07:52.047Z,59.09
2022-08-05T21:10:34.378Z,59.24
2022-08-05T21:13:36.789Z,59.39
2022-08-05T21:16:29.581Z,60.17
2022-08-05T21:19:20.759Z,59.62
2022-08-05T21:22:04.337Z,59.78
2022-08-05T21:24:56.598Z,59.42
2022-08-05T21:27:38.959Z,60.41
2022-08-05T21:30:29.228Z,60.17
2022-08-05T21:33:22.328Z,60.86
2022-08-05T21:36:10.977Z,61.26
2022-08-05T21:38:55.413Z,61.08
2022-08-05T21:41:42.223Z,60.60
2022-08-05T21:44:34.455Z,60.71
2022-08-05T21:47:55.167Z,60.24
2022-08-05T21:50:23.362Z,60.51
2022-08-05T21:53:17.623Z,60.84
2022-08-05T21:56:06.055Z,60.88
2022-08-05T21:59:08.081Z,60.90
2022-08-05T22:02:03.488Z,59.36
2022-08-05T22:04:50.265Z,59.96
2022-08-05T22:07:40.125Z,57.22
2022-08-05T22:10:41.522Z,58.71
2022-08-05T22:14:06.555Z,58.47
2022-08-05T22:16:50.908Z,58.16
2022-08-05T22:19:57.460Z,59.48
2022-08-05T22:23:03.790Z,59.55
2022-08-05T22:26:17.604Z,60.11
2022-08-05T22:29:08.648Z,59.15
2022-08-05T22:31:55.261Z,59.66
2022-08-05T22:34:49.063Z,59.64
2022-08-05T22:37:59.070Z,59.66
2022-08-05T22:40:49.379Z,59.19
2022-08-05T22:43:36.872Z,59.10
2022-08-05T22:46:25.850Z,58.70
2022-08-05T22:49:12.362Z,58.85
2022-08-05T22:52:30.488Z,59.56
2022-08-05T22:55:19.399Z,58.71
2022-08-05T22:58:11.620Z,59.00
2022-08-05T23:00:56.938Z,59.20
2022-08-05T23:03:57.785Z,59.19
2022-08-05T23:06:40.395Z,58.97
2022-08-05T23:09:53.234Z,59.06
2022-08-05T23:12:32.388Z,59.47
2022-08-05T23:15:22.446Z,58.29
2022-08-05T23:18:11.625Z,58.30
2022-08-05T23:21:04.036Z,58.24
2022-08-05T23:23:45.568Z,58.83
2022-08-05T23:26:36.448Z,58.46
2022-08-05T23:29:17.436Z,59.11
2022-08-05T23:32:08.047Z,59.21
2022-08-05T23:34:51.619Z,58.49
2022-08-05T23:37:46.302Z,58.84
2022-08-05T23:40:35.486Z,58.74
2022-08-05T23:43:25.604Z,58.94
2022-08-05T23:46:24.881Z,57.97
2022-08-05T23:49:16.868Z,58.43
2022-08-05T23:52:30.532Z,59.17
2022-08-05T23:55:14.329Z,58.57
2022-08-05T23:58:01.424Z,57.05
